createdAt,value
2022-11-28T00:01:01.650Z,22.0
2022-11-28T00:06:01.717Z,22.7
2022-11-28T00:11:01.567Z,22.5
2022-11-28T00:16:02.006Z,21.8
2022-11-28T00:21:01.913Z,21.4
2022-11-28T00:26:02.036Z,21.4
2022-11-28T00:31:01.300Z,21.0
2022-11-28T00:36:01.755Z,21.0
2022-11-28T00:41:01.532Z,21.4
2022-11-28T00:46:01.868Z,21.3
2022-11-28T00:51:01.438Z,20.8
2022-11-28T00:56:01.799Z,21.0
2022-11-28T01:01:02.459Z,20.6
2022-11-28T01:06:02.087Z,20.8
2022-11-28T01:11:01.778Z,20.6
2022-11-28T01:16:01.931Z,20.8
2022-11-28T01:21:01.836Z,20.8
2022-11-28T01:26:01.971Z,20.6
2022-11-28T01:31:01.927Z,20.6
2022-11-28T01:36:01.733Z,20.3
2022-11-28T01:41:02.008Z,20.3
2022-11-28T01:46:02.021Z,20.0
2022-11-28T01:51:02.091Z,20.1
2022-11-28T01:56:01.825Z,19.9
2022-11-28T02:01:02.097Z,19.8
2022-11-28T02:06:01.981Z,19.0
2022-11-28T02:11:01.668Z,19.6
2022-11-28T02:16:01.929Z,20.0
2022-11-28T02:26:01.927Z,20.8
2022-11-28T02:31:01.717Z,21.8
2022-11-28T02:36:01.891Z,21.1
2022-11-28T02:41:01.518Z,20.8
2022-11-28T02:51:02.354Z,20.2
2022-11-28T02:56:01.479Z,19.5
2022-11-28T03:02:01.933Z,19.5
2022-11-28T03:07:01.913Z,19.6
2022-11-28T03:12:01.414Z,18.9
2022-11-28T03:17:17.069Z,18.7
2022-11-28T03:22:01.607Z,19.2
2022-11-28T03:27:02.160Z,19.0
2022-11-28T03:32:01.513Z,18.5
2022-11-28T03:42:02.136Z,18.5
2022-11-28T03:52:02.362Z,18.4
2022-11-28T03:57:01.826Z,18.9
2022-11-28T04:02:01.657Z,19.1
2022-11-28T04:08:02.352Z,19.1
2022-11-28T04:13:01.760Z,19.8
2022-11-28T04:18:01.761Z,18.7
2022-11-28T04:23:01.715Z,18.4
2022-11-28T04:28:02.106Z,18.1
2022-11-28T04:33:01.730Z,18.0
2022-11-28T04:38:01.742Z,16.7
2022-11-28T04:43:01.726Z,18.1
2022-11-28T04:48:02.104Z,18.2
2022-11-28T04:53:02.265Z,19.3
2022-11-28T04:58:01.856Z,19.5
2022-11-28T05:03:01.721Z,20.0
2022-11-28T05:08:02.628Z,19.2
2022-11-28T05:13:01.723Z,19.7
2022-11-28T05:18:01.789Z,19.7
2022-11-28T05:23:01.734Z,19.0
2022-11-28T05:28:02.120Z,19.6
2022-11-28T05:33:01.722Z,20.4
2022-11-28T05:38:01.777Z,20.5
2022-11-28T05:43:01.433Z,20.4
2022-11-28T05:48:02.139Z,21.7
2022-11-28T05:53:01.785Z,20.4
2022-11-28T05:58:02.059Z,20.3
2022-11-28T06:03:02.246Z,19.9
2022-11-28T06:08:02.505Z,19.2
2022-11-28T06:13:01.760Z,18.6
2022-11-28T06:18:01.732Z,20.1
2022-11-28T06:23:01.696Z,20.2
2022-11-28T06:28:02.063Z,20.6
2022-11-28T06:33:01.796Z,21.6
2022-11-28T06:38:14.705Z,22.1
2022-11-28T06:43:01.635Z,21.9
2022-11-28T06:48:02.003Z,21.7
2022-11-28T06:53:02.194Z,21.4
2022-11-28T06:58:03.512Z,20.8
2022-11-28T07:03:01.738Z,19.6
2022-11-28T07:08:02.367Z,19.6
2022-11-28T07:13:06.022Z,19.1
2022-11-28T07:18:01.845Z,19.6
2022-11-28T07:23:01.838Z,19.7
2022-11-28T07:28:02.230Z,20.4
2022-11-28T07:33:01.734Z,20.4
2022-11-28T07:38:01.741Z,20.6
2022-11-28T07:43:02.170Z,19.6
2022-11-28T07:48:01.819Z,19.1
2022-11-28T07:53:07.644Z,18.8
2022-11-28T07:58:01.728Z,18.2
2022-11-28T08:03:01.640Z,18.4
2022-11-28T08:08:01.938Z,19.1
2022-11-28T08:13:02.034Z,19.4
2022-11-28T08:18:01.511Z,19.1
2022-11-28T08:23:01.457Z,19.8
2022-11-28T08:28:01.624Z,19.0
2022-11-28T08:33:01.709Z,18.4
2022-11-28T08:38:02.679Z,17.8
2022-11-28T08:43:01.691Z,17.8
2022-11-28T08:48:01.937Z,17.6
2022-11-28T08:53:08.287Z,18.2
2022-11-28T08:58:01.476Z,17.8
2022-11-28T09:03:01.855Z,17.8
2022-11-28T09:08:03.004Z,17.8
2022-11-28T09:18:01.761Z,17.3
2022-11-28T09:23:01.804Z,16.9
2022-11-28T09:28:01.788Z,16.4
2022-11-28T09:33:01.786Z,15.8
2022-11-28T09:38:01.802Z,14.7
2022-11-28T09:43:01.765Z,14.3
2022-11-28T09:48:01.549Z,14.1
2022-11-28T09:53:02.086Z,13.6
2022-11-28T10:03:01.663Z,14.4
2022-11-28T10:08:02.475Z,13.6
2022-11-28T10:13:17.372Z,14.2
2022-11-28T10:18:01.851Z,15.0
2022-11-28T10:23:01.789Z,15.3
2022-11-28T10:28:01.843Z,16.0
2022-11-28T10:33:01.738Z,17.4
2022-11-28T10:38:01.871Z,18.3
2022-11-28T10:43:11.083Z,19.2
2022-11-28T10:53:02.031Z,18.7
2022-11-28T10:58:01.796Z,18.0
2022-11-28T11:03:01.855Z,17.2
2022-11-28T11:13:01.765Z,16.6
2022-11-28T11:18:01.893Z,17.6
2022-11-28T11:23:01.716Z,18.4
2022-11-28T11:28:01.529Z,18.9
2022-11-28T11:34:01.541Z,19.2
2022-11-28T11:39:01.744Z,20.2
2022-11-28T11:44:01.590Z,20.5
2022-11-28T11:49:01.567Z,20.7
2022-11-28T11:54:01.516Z,20.7
2022-11-28T11:59:01.723Z,20.0
2022-11-28T12:09:01.320Z,19.2
2022-11-28T12:14:01.636Z,18.3
2022-11-28T12:19:01.333Z,17.8
2022-11-28T12:24:01.704Z,18.3
2022-11-28T12:29:11.308Z,18.2
2022-11-28T12:34:01.243Z,18.2
2022-11-28T12:39:01.509Z,18.4
2022-11-28T12:44:01.617Z,18.6
2022-11-28T12:49:01.732Z,17.8
2022-11-28T12:54:01.383Z,18.0
2022-11-28T12:59:01.428Z,17.9
2022-11-28T13:04:01.626Z,18.2
2022-11-28T13:09:01.476Z,18.6
2022-11-28T13:14:01.581Z,19.2
2022-11-28T13:19:01.851Z,19.1
2022-11-28T13:24:07.852Z,19.8
2022-11-28T13:29:01.578Z,20.2
2022-11-28T13:34:01.763Z,19.6
2022-11-28T13:39:13.749Z,19.9
2022-11-28T13:44:01.529Z,20.4
2022-11-28T13:54:01.460Z,26.5
2022-11-28T14:00:05.812Z,29.7
2022-11-28T14:05:01.272Z,30.7
2022-11-28T14:10:01.980Z,30.8
2022-11-28T14:15:07.709Z,28.6
2022-11-28T14:20:01.852Z,25.1
2022-11-28T14:25:01.433Z,22.5
2022-11-28T14:30:02.492Z,22.1
2022-11-28T14:35:01.279Z,20.6
2022-11-28T14:40:01.912Z,20.4
2022-11-28T14:45:24.383Z,20.0
2022-11-28T14:50:01.396Z,20.4
2022-11-28T15:00:06.937Z,21.1
2022-11-28T15:05:01.483Z,21.9
2022-11-28T15:10:08.171Z,21.9
2022-11-28T15:15:03.436Z,21.8
2022-11-28T15:20:01.553Z,22.3
2022-11-28T15:25:01.766Z,22.8
2022-11-28T15:30:03.287Z,22.7
2022-11-28T15:35:01.475Z,22.2
2022-11-28T15:40:02.028Z,22.5
2022-11-28T15:45:08.092Z,22.0
2022-11-28T15:50:02.277Z,20.1
2022-11-28T15:55:01.792Z,20.0
2022-11-28T16:00:02.265Z,20.8
2022-11-28T16:05:01.736Z,20.1
2022-11-28T16:10:01.530Z,20.4
2022-11-28T16:15:02.782Z,21.8
2022-11-28T16:20:01.896Z,21.3
2022-11-28T16:30:18.256Z,21.6
2022-11-28T16:35:03.049Z,21.2
2022-11-28T16:40:01.910Z,21.9
2022-11-28T16:45:14.673Z,22.2
2022-11-28T16:50:01.764Z,22.9
2022-11-28T16:55:01.751Z,23.1
2022-11-28T17:00:03.762Z,23.5
2022-11-28T17:05:01.645Z,23.0
2022-11-28T17:10:01.838Z,22.9
2022-11-28T17:15:02.770Z,22.7
2022-11-28T17:20:01.885Z,22.4
2022-11-28T17:25:01.748Z,22.4
2022-11-28T17:30:03.019Z,22.9
2022-11-28T17:35:01.448Z,23.4
2022-11-28T17:40:01.956Z,23.8
2022-11-28T17:45:02.417Z,23.8
2022-11-28T17:50:01.732Z,23.8
2022-11-28T17:55:07.587Z,24.0
2022-11-28T18:00:04.776Z,24.1
2022-11-28T18:06:01.768Z,23.8
2022-11-28T18:11:01.880Z,24.0
2022-11-28T18:16:02.294Z,24.1
2022-11-28T18:21:01.734Z,23.2
2022-11-28T18:26:01.766Z,23.6
2022-11-28T18:31:01.878Z,23.5
2022-11-28T18:41:02.286Z,23.2
2022-11-28T18:46:02.051Z,23.8
2022-11-28T18:51:01.849Z,23.4
2022-11-28T18:56:01.639Z,23.7
2022-11-28T19:01:01.951Z,23.9
2022-11-28T19:06:01.742Z,24.3
2022-11-28T19:11:01.870Z,24.6
2022-11-28T19:16:01.843Z,24.9
2022-11-28T19:21:01.745Z,25.8
2022-11-28T19:26:01.747Z,26.1
2022-11-28T19:31:01.840Z,26.5
2022-11-28T19:36:01.762Z,26.9
2022-11-28T19:41:06.929Z,26.2
2022-11-28T19:46:01.984Z,25.4
2022-11-28T19:51:01.795Z,25.7
2022-11-28T19:56:01.683Z,25.2
2022-11-28T20:01:01.768Z,25.3
2022-11-28T20:06:01.578Z,26.4
2022-11-28T20:11:01.562Z,27.1
2022-11-28T20:16:01.502Z,26.8
2022-11-28T20:21:01.524Z,27.1
2022-11-28T20:26:01.668Z,27.1
2022-11-28T20:31:01.728Z,27.3
2022-11-28T20:36:01.566Z,27.1
2022-11-28T20:41:01.710Z,27.0
2022-11-28T20:51:01.660Z,27.9
2022-11-28T20:56:01.430Z,28.0
2022-11-28T21:01:03.337Z,28.2
2022-11-28T21:06:02.107Z,28.8
2022-11-28T21:11:01.837Z,29.1
2022-11-28T21:16:02.055Z,29.3
2022-11-28T21:26:01.839Z,29.1
2022-11-28T21:31:01.837Z,29.3
2022-11-28T21:36:01.773Z,28.1
2022-11-28T21:41:01.773Z,27.2
2022-11-28T21:46:01.972Z,26.4
2022-11-28T21:51:02.223Z,25.7
2022-11-28T21:56:02.013Z,24.9
2022-11-28T22:06:01.868Z,24.4
2022-11-28T22:11:01.891Z,24.9
2022-11-28T22:16:02.206Z,25.4
2022-11-28T22:21:01.984Z,25.3
2022-11-28T22:31:01.862Z,26.1
2022-11-28T22:36:01.744Z,25.5
2022-11-28T22:41:01.858Z,25.2
2022-11-28T22:46:02.133Z,25.1
2022-11-28T22:51:02.073Z,25.2
2022-11-28T22:56:07.405Z,25.4
2022-11-28T23:01:03.799Z,25.5
2022-11-28T23:06:01.774Z,25.9
2022-11-28T23:11:01.933Z,26.1
2022-11-28T23:17:01.731Z,26.3
2022-11-28T23:22:02.236Z,26.2
2022-11-28T23:27:02.180Z,26.5
2022-11-28T23:32:02.003Z,26.6
2022-11-28T23:37:02.238Z,26.8
2022-11-28T23:42:01.717Z,26.6
2022-11-28T23:47:01.869Z,26.4
2022-11-28T23:52:01.738Z,26.4
2022-11-28T23:57:01.722Z,26.5
